sensor_id;sensor_type;location;lat;lon;timestamp;P1;durP1;ratioP1;P2;durP2;ratioP2
18623;SDS011;9441;51.420;7.036;2023-11-19T00:00:55;10.03;;;6.00;;
18623;SDS011;9441;51.420;7.036;2023-11-19T00:01:56;11.33;;;6.60;;
18623;SDS011;9441;51.420;7.036;2023-11-19T00:02:59;8.13;;;6.40;;
18623;SDS011;9441;51.420;7.036;2023-11-19T00:04:00;13.13;;;7.33;;
18623;SDS011;9441;51.420;7.036;2023-11-19T00:05:05;13.27;;;7.13;;
18623;SDS011;9441;51.420;7.036;2023-11-19T00:06:09;13.17;;;7.90;;
18623;SDS011;9441;51.420;7.036;2023-11-19T00:07:11;9.97;;;7.63;;
18623;SDS011;9441;51.420;7.036;2023-11-19T00:08:14;11.47;;;7.23;;
18623;SDS011;9441;51.420;7.036;2023-11-19T00:09:16;10.87;;;7.30;;
18623;SDS011;9441;51.420;7.036;2023-11-19T00:10:18;12.47;;;7.53;;
18623;SDS011;9441;51.420;7.036;2023-11-19T00:11:21;11.37;;;7.27;;
18623;SDS011;9441;51.420;7.036;2023-11-19T00:12:22;11.07;;;7.50;;
18623;SDS011;9441;51.420;7.036;2023-11-19T00:13:25;13.67;;;7.80;;
18623;SDS011;9441;51.420;7.036;2023-11-19T00:14:26;12.97;;;7.83;;
18623;SDS011;9441;51.420;7.036;2023-11-19T00:15:29;9.70;;;7.20;;
18623;SDS011;9441;51.420;7.036;2023-11-19T00:16:32;11.53;;;7.30;;
18623;SDS011;9441;51.420;7.036;2023-11-19T00:17:35;10.20;;;7.67;;
18623;SDS011;9441;51.420;7.036;2023-11-19T00:18:36;12.63;;;7.63;;
18623;SDS011;9441;51.420;7.036;2023-11-19T00:19:38;13.57;;;8.00;;
18623;SDS011;9441;51.420;7.036;2023-11-19T00:20:40;11.33;;;7.80;;
18623;SDS011;9441;51.420;7.036;2023-11-19T00:21:44;10.93;;;7.83;;
18623;SDS011;9441;51.420;7.036;2023-11-19T00:22:46;10.90;;;7.50;;
18623;SDS011;9441;51.420;7.036;2023-11-19T00:23:51;12.13;;;7.90;;
18623;SDS011;9441;51.420;7.036;2023-11-19T00:24:52;12.83;;;7.73;;
18623;SDS011;9441;51.420;7.036;2023-11-19T00:25:53;11.60;;;8.00;;
18623;SDS011;9441;51.420;7.036;2023-11-19T00:26:56;10.87;;;7.60;;
18623;SDS011;9441;51.420;7.036;2023-11-19T00:27:57;10.90;;;7.53;;
18623;SDS011;9441;51.420;7.036;2023-11-19T00:29:00;16.60;;;7.73;;
18623;SDS011;9441;51.420;7.036;2023-11-19T00:30:01;11.17;;;7.70;;
18623;SDS011;9441;51.420;7.036;2023-11-19T00:31:05;13.57;;;7.63;;
18623;SDS011;9441;51.420;7.036;2023-11-19T00:32:08;9.97;;;7.23;;
18623;SDS011;9441;51.420;7.036;2023-11-19T00:33:11;12.47;;;8.00;;
18623;SDS011;9441;51.420;7.036;2023-11-19T00:34:13;14.83;;;7.83;;
18623;SDS011;9441;51.420;7.036;2023-11-19T00:35:15;11.63;;;7.40;;
18623;SDS011;9441;51.420;7.036;2023-11-19T00:36:16;11.83;;;7.60;;
18623;SDS011;9441;51.420;7.036;2023-11-19T00:37:19;13.07;;;7.60;;
18623;SDS011;9441;51.420;7.036;2023-11-19T00:38:20;10.57;;;7.20;;
18623;SDS011;9441;51.420;7.036;2023-11-19T00:39:22;14.03;;;7.93;;
18623;SDS011;9441;51.420;7.036;2023-11-19T00:40:24;13.97;;;7.83;;
18623;SDS011;9441;51.420;7.036;2023-11-19T00:41:25;16.47;;;8.07;;
18623;SDS011;9441;51.420;7.036;2023-11-19T00:42:27;11.87;;;7.43;;
18623;SDS011;9441;51.420;7.036;2023-11-19T00:43:29;11.30;;;7.97;;
18623;SDS011;9441;51.420;7.036;2023-11-19T00:44:31;12.60;;;7.40;;
18623;SDS011;9441;51.420;7.036;2023-11-19T00:45:33;12.20;;;8.23;;
18623;SDS011;9441;51.420;7.036;2023-11-19T00:46:35;13.70;;;7.77;;
18623;SDS011;9441;51.420;7.036;2023-11-19T00:47:38;12.93;;;8.43;;
18623;SDS011;9441;51.420;7.036;2023-11-19T00:48:40;13.70;;;8.00;;
18623;SDS011;9441;51.420;7.036;2023-11-19T00:49:42;11.30;;;8.03;;
18623;SDS011;9441;51.420;7.036;2023-11-19T00:50:43;13.60;;;8.53;;
18623;SDS011;9441;51.420;7.036;2023-11-19T00:51:46;11.73;;;8.10;;
18623;SDS011;9441;51.420;7.036;2023-11-19T00:52:48;16.47;;;8.20;;
18623;SDS011;9441;51.420;7.036;2023-11-19T00:53:50;14.67;;;8.13;;
18623;SDS011;9441;51.420;7.036;2023-11-19T00:54:53;11.47;;;7.67;;
18623;SDS011;9441;51.420;7.036;2023-11-19T00:55:54;17.27;;;8.70;;
18623;SDS011;9441;51.420;7.036;2023-11-19T00:56:57;12.40;;;7.60;;
18623;SDS011;9441;51.420;7.036;2023-11-19T00:57:58;12.27;;;8.33;;
18623;SDS011;9441;51.420;7.036;2023-11-19T00:59:01;14.30;;;8.50;;
18623;SDS011;9441;51.420;7.036;2023-11-19T01:00:03;14.40;;;7.47;;
18623;SDS011;9441;51.420;7.036;2023-11-19T01:01:09;14.83;;;7.67;;
18623;SDS011;9441;51.420;7.036;2023-11-19T01:02:12;11.07;;;7.60;;
18623;SDS011;9441;51.420;7.036;2023-11-19T01:03:16;15.60;;;7.53;;
18623;SDS011;9441;51.420;7.036;2023-11-19T01:04:18;14.37;;;7.60;;
18623;SDS011;9441;51.420;7.036;2023-11-19T01:05:20;11.27;;;7.17;;
18623;SDS011;9441;51.420;7.036;2023-11-19T01:06:28;14.30;;;7.90;;
18623;SDS011;9441;51.420;7.036;2023-11-19T01:07:31;14.50;;;7.10;;
18623;SDS011;9441;51.420;7.036;2023-11-19T01:08:32;11.00;;;6.83;;
18623;SDS011;9441;51.420;7.036;2023-11-19T01:09:36;16.87;;;6.93;;
18623;SDS011;9441;51.420;7.036;2023-11-19T01:10:38;12.50;;;7.20;;
18623;SDS011;9441;51.420;7.036;2023-11-19T01:11:40;17.57;;;6.77;;
18623;SDS011;9441;51.420;7.036;2023-11-19T01:12:41;15.17;;;7.47;;
18623;SDS011;9441;51.420;7.036;2023-11-19T01:13:44;14.07;;;6.87;;
18623;SDS011;9441;51.420;7.036;2023-11-19T01:14:46;14.50;;;6.80;;
18623;SDS011;9441;51.420;7.036;2023-11-19T01:15:48;12.00;;;6.50;;
18623;SDS011;9441;51.420;7.036;2023-11-19T01:16:49;11.17;;;7.17;;
18623;SDS011;9441;51.420;7.036;2023-11-19T01:17:54;12.87;;;6.77;;
18623;SDS011;9441;51.420;7.036;2023-11-19T01:18:56;7.90;;;5.90;;
18623;SDS011;9441;51.420;7.036;2023-11-19T01:19:59;9.90;;;5.83;;
18623;SDS011;9441;51.420;7.036;2023-11-19T01:21:00;12.83;;;6.40;;
18623;SDS011;9441;51.420;7.036;2023-11-19T01:22:02;8.37;;;5.50;;
18623;SDS011;9441;51.420;7.036;2023-11-19T01:23:04;9.43;;;6.23;;
18623;SDS011;9441;51.420;7.036;2023-11-19T01:24:06;10.33;;;6.33;;
18623;SDS011;9441;51.420;7.036;2023-11-19T01:25:10;9.77;;;5.87;;
18623;SDS011;9441;51.420;7.036;2023-11-19T01:26:11;9.80;;;5.80;;
18623;SDS011;9441;51.420;7.036;2023-11-19T01:27:14;9.00;;;5.40;;
18623;SDS011;9441;51.420;7.036;2023-11-19T01:28:15;10.93;;;5.83;;
18623;SDS011;9441;51.420;7.036;2023-11-19T01:29:17;8.60;;;5.77;;
18623;SDS011;9441;51.420;7.036;2023-11-19T01:30:20;7.17;;;5.10;;
18623;SDS011;9441;51.420;7.036;2023-11-19T01:31:23;8.27;;;4.90;;
18623;SDS011;9441;51.420;7.036;2023-11-19T01:32:25;7.87;;;4.90;;
18623;SDS011;9441;51.420;7.036;2023-11-19T01:33:27;6.63;;;4.90;;
18623;SDS011;9441;51.420;7.036;2023-11-19T01:34:30;9.13;;;5.07;;
18623;SDS011;9441;51.420;7.036;2023-11-19T01:35:32;9.13;;;4.80;;
18623;SDS011;9441;51.420;7.036;2023-11-19T01:36:34;7.90;;;4.87;;
18623;SDS011;9441;51.420;7.036;2023-11-19T01:37:36;8.43;;;5.00;;
18623;SDS011;9441;51.420;7.036;2023-11-19T01:38:38;9.03;;;4.70;;
18623;SDS011;9441;51.420;7.036;2023-11-19T01:39:39;7.63;;;4.77;;
18623;SDS011;9441;51.420;7.036;2023-11-19T01:40:42;6.93;;;4.30;;
18623;SDS011;9441;51.420;7.036;2023-11-19T01:41:43;11.30;;;4.40;;
18623;SDS011;9441;51.420;7.036;2023-11-19T01:42:46;9.07;;;4.80;;
18623;SDS011;9441;51.420;7.036;2023-11-19T01:43:47;5.57;;;4.13;;
18623;SDS011;9441;51.420;7.036;2023-11-19T01:44:58;6.80;;;4.50;;
18623;SDS011;9441;51.420;7.036;2023-11-19T01:46:00;7.13;;;4.30;;
18623;SDS011;9441;51.420;7.036;2023-11-19T01:47:02;7.47;;;4.47;;
18623;SDS011;9441;51.420;7.036;2023-11-19T01:48:04;5.50;;;4.03;;
18623;SDS011;9441;51.420;7.036;2023-11-19T01:49:07;7.63;;;4.40;;
18623;SDS011;9441;51.420;7.036;2023-11-19T01:50:10;8.60;;;4.27;;
18623;SDS011;9441;51.420;7.036;2023-11-19T01:51:13;6.97;;;4.20;;
18623;SDS011;9441;51.420;7.036;2023-11-19T01:52:16;7.97;;;4.00;;
18623;SDS011;9441;51.420;7.036;2023-11-19T01:53:19;8.23;;;4.10;;
18623;SDS011;9441;51.420;7.036;2023-11-19T01:54:21;5.37;;;4.07;;
18623;SDS011;9441;51.420;7.036;2023-11-19T01:55:24;7.90;;;4.20;;
18623;SDS011;9441;51.420;7.036;2023-11-19T01:56:26;6.40;;;4.40;;
18623;SDS011;9441;51.420;7.036;2023-11-19T01:57:30;7.90;;;4.50;;
18623;SDS011;9441;51.420;7.036;2023-11-19T01:58:32;5.97;;;4.50;;
18623;SDS011;9441;51.420;7.036;2023-11-19T01:59:34;6.63;;;4.40;;
18623;SDS011;9441;51.420;7.036;2023-11-19T02:00:36;7.20;;;4.23;;
18623;SDS011;9441;51.420;7.036;2023-11-19T02:01:39;10.57;;;4.50;;
18623;SDS011;9441;51.420;7.036;2023-11-19T02:02:40;7.00;;;4.40;;
18623;SDS011;9441;51.420;7.036;2023-11-19T02:03:43;9.07;;;4.00;;
18623;SDS011;9441;51.420;7.036;2023-11-19T02:04:45;9.23;;;4.60;;
18623;SDS011;9441;51.420;7.036;2023-11-19T02:05:49;6.70;;;4.60;;
18623;SDS011;9441;51.420;7.036;2023-11-19T02:06:51;6.70;;;4.10;;
18623;SDS011;9441;51.420;7.036;2023-11-19T02:07:53;7.73;;;4.30;;
18623;SDS011;9441;51.420;7.036;2023-11-19T02:08:55;7.87;;;4.47;;
18623;SDS011;9441;51.420;7.036;2023-11-19T02:09:57;6.13;;;4.40;;
18623;SDS011;9441;51.420;7.036;2023-11-19T02:11:00;11.87;;;4.47;;
18623;SDS011;9441;51.420;7.036;2023-11-19T02:12:04;11.33;;;5.10;;
18623;SDS011;9441;51.420;7.036;2023-11-19T02:13:06;8.10;;;4.70;;
18623;SDS011;9441;51.420;7.036;2023-11-19T02:14:08;10.57;;;4.57;;
18623;SDS011;9441;51.420;7.036;2023-11-19T02:15:11;5.83;;;4.07;;
18623;SDS011;9441;51.420;7.036;2023-11-19T02:16:13;6.43;;;4.10;;
18623;SDS011;9441;51.420;7.036;2023-11-19T02:17:27;4.97;;;3.70;;
18623;SDS011;9441;51.420;7.036;2023-11-19T02:18:31;7.97;;;4.40;;
18623;SDS011;9441;51.420;7.036;2023-11-19T02:19:33;8.53;;;4.20;;
18623;SDS011;9441;51.420;7.036;2023-11-19T02:20:35;8.37;;;3.90;;
18623;SDS011;9441;51.420;7.036;2023-11-19T02:21:38;10.27;;;3.97;;
18623;SDS011;9441;51.420;7.036;2023-11-19T02:22:42;8.67;;;3.77;;
18623;SDS011;9441;51.420;7.036;2023-11-19T02:23:44;10.37;;;3.93;;
18623;SDS011;9441;51.420;7.036;2023-11-19T02:24:47;6.10;;;3.40;;
18623;SDS011;9441;51.420;7.036;2023-11-19T02:25:54;8.10;;;3.80;;
18623;SDS011;9441;51.420;7.036;2023-11-19T02:26:58;7.27;;;3.47;;
18623;SDS011;9441;51.420;7.036;2023-11-19T02:28:03;8.83;;;3.60;;
18623;SDS011;9441;51.420;7.036;2023-11-19T02:29:06;7.90;;;3.43;;
18623;SDS011;9441;51.420;7.036;2023-11-19T02:30:08;12.00;;;3.50;;
18623;SDS011;9441;51.420;7.036;2023-11-19T02:31:10;12.50;;;3.27;;
18623;SDS011;9441;51.420;7.036;2023-11-19T02:32:12;9.07;;;3.30;;
18623;SDS011;9441;51.420;7.036;2023-11-19T02:33:16;5.33;;;3.07;;
18623;SDS011;9441;51.420;7.036;2023-11-19T02:34:17;6.33;;;3.30;;
18623;SDS011;9441;51.420;7.036;2023-11-19T02:35:19;6.23;;;3.50;;
18623;SDS011;9441;51.420;7.036;2023-11-19T02:36:22;7.60;;;3.40;;
18623;SDS011;9441;51.420;7.036;2023-11-19T02:37:24;8.90;;;3.37;;
18623;SDS011;9441;51.420;7.036;2023-11-19T02:38:26;7.77;;;3.30;;
18623;SDS011;9441;51.420;7.036;2023-11-19T02:39:28;7.70;;;3.20;;
18623;SDS011;9441;51.420;7.036;2023-11-19T02:40:29;6.90;;;3.10;;
18623;SDS011;9441;51.420;7.036;2023-11-19T02:41:31;9.27;;;3.47;;
18623;SDS011;9441;51.420;7.036;2023-11-19T02:42:33;7.70;;;3.10;;
18623;SDS011;9441;51.420;7.036;2023-11-19T02:43:36;8.67;;;3.77;;
18623;SDS011;9441;51.420;7.036;2023-11-19T02:44:39;8.00;;;3.20;;
18623;SDS011;9441;51.420;7.036;2023-11-19T02:45:40;8.60;;;3.27;;
18623;SDS011;9441;51.420;7.036;2023-11-19T02:46:43;14.33;;;3.40;;
18623;SDS011;9441;51.420;7.036;2023-11-19T02:47:48;12.83;;;3.13;;
18623;SDS011;9441;51.420;7.036;2023-11-19T02:48:50;7.67;;;3.13;;
18623;SDS011;9441;51.420;7.036;2023-11-19T02:49:52;7.27;;;3.20;;
18623;SDS011;9441;51.420;7.036;2023-11-19T02:50:54;10.40;;;3.10;;
18623;SDS011;9441;51.420;7.036;2023-11-19T02:51:58;8.63;;;3.10;;
18623;SDS011;9441;51.420;7.036;2023-11-19T02:53:00;7.80;;;2.87;;
18623;SDS011;9441;51.420;7.036;2023-11-19T02:54:02;11.07;;;3.17;;
18623;SDS011;9441;51.420;7.036;2023-11-19T02:55:05;8.77;;;3.40;;
18623;SDS011;9441;51.420;7.036;2023-11-19T02:56:09;7.03;;;3.10;;
18623;SDS011;9441;51.420;7.036;2023-11-19T02:57:20;8.87;;;3.10;;
18623;SDS011;9441;51.420;7.036;2023-11-19T02:58:21;10.20;;;2.93;;
18623;SDS011;9441;51.420;7.036;2023-11-19T02:59:26;12.07;;;3.27;;
18623;SDS011;9441;51.420;7.036;2023-11-19T03:00:39;10.97;;;3.60;;
18623;SDS011;9441;51.420;7.036;2023-11-19T03:01:48;12.60;;;3.20;;
18623;SDS011;9441;51.420;7.036;2023-11-19T03:02:51;10.90;;;3.63;;
18623;SDS011;9441;51.420;7.036;2023-11-19T03:03:59;15.97;;;3.53;;
18623;SDS011;9441;51.420;7.036;2023-11-19T03:05:02;10.67;;;3.30;;
18623;SDS011;9441;51.420;7.036;2023-11-19T03:06:05;9.27;;;3.40;;
18623;SDS011;9441;51.420;7.036;2023-11-19T03:07:07;14.33;;;3.40;;
18623;SDS011;9441;51.420;7.036;2023-11-19T03:08:09;11.00;;;3.20;;
18623;SDS011;9441;51.420;7.036;2023-11-19T03:09:10;8.20;;;3.70;;
18623;SDS011;9441;51.420;7.036;2023-11-19T03:10:13;8.87;;;3.37;;
18623;SDS011;9441;51.420;7.036;2023-11-19T03:11:14;12.77;;;3.50;;
18623;SDS011;9441;51.420;7.036;2023-11-19T03:12:17;9.00;;;3.20;;
18623;SDS011;9441;51.420;7.036;2023-11-19T03:13:18;12.80;;;3.90;;
18623;SDS011;9441;51.420;7.036;2023-11-19T03:14:20;11.83;;;3.53;;
18623;SDS011;9441;51.420;7.036;2023-11-19T03:15:25;9.67;;;3.37;;
18623;SDS011;9441;51.420;7.036;2023-11-19T03:16:27;13.20;;;3.83;;
18623;SDS011;9441;51.420;7.036;2023-11-19T03:17:28;12.03;;;3.60;;
18623;SDS011;9441;51.420;7.036;2023-11-19T03:18:30;10.33;;;4.03;;
18623;SDS011;9441;51.420;7.036;2023-11-19T03:19:33;14.03;;;4.03;;
18623;SDS011;9441;51.420;7.036;2023-11-19T03:20:34;22.77;;;4.00;;
18623;SDS011;9441;51.420;7.036;2023-11-19T03:21:36;17.30;;;4.00;;
18623;SDS011;9441;51.420;7.036;2023-11-19T03:22:38;15.70;;;4.17;;
18623;SDS011;9441;51.420;7.036;2023-11-19T03:23:41;24.13;;;4.10;;
18623;SDS011;9441;51.420;7.036;2023-11-19T03:24:43;21.73;;;4.03;;
18623;SDS011;9441;51.420;7.036;2023-11-19T03:25:46;15.03;;;4.00;;
18623;SDS011;9441;51.420;7.036;2023-11-19T03:26:47;15.33;;;4.20;;
18623;SDS011;9441;51.420;7.036;2023-11-19T03:27:50;12.23;;;3.47;;
18623;SDS011;9441;51.420;7.036;2023-11-19T03:28:51;24.87;;;4.00;;
18623;SDS011;9441;51.420;7.036;2023-11-19T03:29:54;15.13;;;3.80;;
18623;SDS011;9441;51.420;7.036;2023-11-19T03:30:57;14.93;;;4.03;;
18623;SDS011;9441;51.420;7.036;2023-11-19T03:31:59;9.80;;;3.40;;
18623;SDS011;9441;51.420;7.036;2023-11-19T03:33:01;13.70;;;3.90;;
18623;SDS011;9441;51.420;7.036;2023-11-19T03:34:02;12.27;;;4.57;;
18623;SDS011;9441;51.420;7.036;2023-11-19T03:35:05;20.57;;;4.10;;
18623;SDS011;9441;51.420;7.036;2023-11-19T03:36:08;16.00;;;4.20;;
18623;SDS011;9441;51.420;7.036;2023-11-19T03:37:11;20.17;;;3.87;;
18623;SDS011;9441;51.420;7.036;2023-11-19T03:38:13;18.63;;;3.97;;
18623;SDS011;9441;51.420;7.036;2023-11-19T03:39:15;19.27;;;4.20;;
18623;SDS011;9441;51.420;7.036;2023-11-19T03:40:17;18.47;;;4.77;;
18623;SDS011;9441;51.420;7.036;2023-11-19T03:41:20;18.60;;;4.53;;
18623;SDS011;9441;51.420;7.036;2023-11-19T03:42:21;21.57;;;4.50;;
18623;SDS011;9441;51.420;7.036;2023-11-19T03:43:24;24.90;;;4.60;;
18623;SDS011;9441;51.420;7.036;2023-11-19T03:44:25;18.60;;;4.47;;
18623;SDS011;9441;51.420;7.036;2023-11-19T03:45:27;25.77;;;4.73;;
18623;SDS011;9441;51.420;7.036;2023-11-19T03:46:30;20.20;;;4.43;;
18623;SDS011;9441;51.420;7.036;2023-11-19T03:47:33;21.93;;;4.50;;
18623;SDS011;9441;51.420;7.036;2023-11-19T03:48:34;15.70;;;4.30;;
18623;SDS011;9441;51.420;7.036;2023-11-19T03:49:37;22.27;;;4.97;;
18623;SDS011;9441;51.420;7.036;2023-11-19T03:50:38;21.07;;;4.33;;
18623;SDS011;9441;51.420;7.036;2023-11-19T03:51:41;22.40;;;4.50;;
18623;SDS011;9441;51.420;7.036;2023-11-19T03:52:42;22.93;;;4.50;;
18623;SDS011;9441;51.420;7.036;2023-11-19T03:53:44;20.57;;;4.23;;
18623;SDS011;9441;51.420;7.036;2023-11-19T03:54:46;21.77;;;5.17;;
18623;SDS011;9441;51.420;7.036;2023-11-19T03:55:48;15.50;;;4.37;;
18623;SDS011;9441;51.420;7.036;2023-11-19T03:56:50;21.13;;;4.33;;
18623;SDS011;9441;51.420;7.036;2023-11-19T03:57:51;23.63;;;5.00;;
18623;SDS011;9441;51.420;7.036;2023-11-19T03:58:54;26.13;;;4.33;;
18623;SDS011;9441;51.420;7.036;2023-11-19T03:59:55;20.07;;;4.37;;
18623;SDS011;9441;51.420;7.036;2023-11-19T04:00:58;23.53;;;4.07;;
18623;SDS011;9441;51.420;7.036;2023-11-19T04:02:02;24.60;;;4.77;;
18623;SDS011;9441;51.420;7.036;2023-11-19T04:03:03;22.63;;;4.03;;
18623;SDS011;9441;51.420;7.036;2023-11-19T04:04:06;17.33;;;3.83;;
18623;SDS011;9441;51.420;7.036;2023-11-19T04:05:07;15.60;;;3.87;;
18623;SDS011;9441;51.420;7.036;2023-11-19T04:06:11;30.43;;;4.27;;
18623;SDS011;9441;51.420;7.036;2023-11-19T04:07:12;23.03;;;4.07;;
18623;SDS011;9441;51.420;7.036;2023-11-19T04:08:15;22.97;;;3.90;;
18623;SDS011;9441;51.420;7.036;2023-11-19T04:09:17;17.40;;;3.87;;
18623;SDS011;9441;51.420;7.036;2023-11-19T04:10:19;25.00;;;4.17;;
18623;SDS011;9441;51.420;7.036;2023-11-19T04:11:22;15.47;;;4.00;;
18623;SDS011;9441;51.420;7.036;2023-11-19T04:12:25;21.97;;;3.93;;
18623;SDS011;9441;51.420;7.036;2023-11-19T04:13:26;23.03;;;4.23;;
18623;SDS011;9441;51.420;7.036;2023-11-19T04:14:28;19.50;;;4.10;;
18623;SDS011;9441;51.420;7.036;2023-11-19T04:15:30;26.73;;;5.07;;
18623;SDS011;9441;51.420;7.036;2023-11-19T04:16:32;16.73;;;3.93;;
18623;SDS011;9441;51.420;7.036;2023-11-19T04:17:35;19.33;;;3.87;;
18623;SDS011;9441;51.420;7.036;2023-11-19T04:18:36;21.77;;;4.10;;
18623;SDS011;9441;51.420;7.036;2023-11-19T04:19:39;15.17;;;3.87;;
18623;SDS011;9441;51.420;7.036;2023-11-19T04:20:41;17.30;;;4.17;;
18623;SDS011;9441;51.420;7.036;2023-11-19T04:21:44;25.40;;;4.20;;
18623;SDS011;9441;51.420;7.036;2023-11-19T04:22:45;25.60;;;4.57;;
18623;SDS011;9441;51.420;7.036;2023-11-19T04:23:47;30.10;;;4.10;;
18623;SDS011;9441;51.420;7.036;2023-11-19T04:24:49;20.73;;;4.03;;
18623;SDS011;9441;51.420;7.036;2023-11-19T04:25:51;20.67;;;4.33;;
18623;SDS011;9441;51.420;7.036;2023-11-19T04:26:52;25.13;;;4.40;;
18623;SDS011;9441;51.420;7.036;2023-11-19T04:27:54;17.03;;;4.30;;
18623;SDS011;9441;51.420;7.036;2023-11-19T04:28:56;31.07;;;4.60;;
18623;SDS011;9441;51.420;7.036;2023-11-19T04:29:57;27.17;;;4.20;;
18623;SDS011;9441;51.420;7.036;2023-11-19T04:31:02;27.80;;;3.90;;
18623;SDS011;9441;51.420;7.036;2023-11-19T04:32:04;32.03;;;4.30;;
18623;SDS011;9441;51.420;7.036;2023-11-19T04:33:08;32.40;;;4.80;;
18623;SDS011;9441;51.420;7.036;2023-11-19T04:34:09;32.17;;;4.23;;
18623;SDS011;9441;51.420;7.036;2023-11-19T04:35:12;23.80;;;4.00;;
18623;SDS011;9441;51.420;7.036;2023-11-19T04:36:18;26.53;;;4.00;;
18623;SDS011;9441;51.420;7.036;2023-11-19T04:37:21;28.87;;;4.60;;
18623;SDS011;9441;51.420;7.036;2023-11-19T04:38:23;26.00;;;4.07;;
18623;SDS011;9441;51.420;7.036;2023-11-19T04:39:27;31.03;;;4.57;;
18623;SDS011;9441;51.420;7.036;2023-11-19T04:40:29;32.77;;;4.60;;
18623;SDS011;9441;51.420;7.036;2023-11-19T04:41:30;31.20;;;4.33;;
18623;SDS011;9441;51.420;7.036;2023-11-19T04:42:32;31.67;;;4.80;;
18623;SDS011;9441;51.420;7.036;2023-11-19T04:43:34;33.00;;;4.60;;
18623;SDS011;9441;51.420;7.036;2023-11-19T04:44:36;26.43;;;4.27;;
18623;SDS011;9441;51.420;7.036;2023-11-19T04:45:38;30.97;;;4.50;;
18623;SDS011;9441;51.420;7.036;2023-11-19T04:46:40;41.20;;;4.70;;
18623;SDS011;9441;51.420;7.036;2023-11-19T04:47:43;24.13;;;4.53;;
18623;SDS011;9441;51.420;7.036;2023-11-19T04:48:46;25.67;;;4.17;;
18623;SDS011;9441;51.420;7.036;2023-11-19T04:49:47;31.17;;;4.87;;
18623;SDS011;9441;51.420;7.036;2023-11-19T04:50:49;32.67;;;4.23;;
18623;SDS011;9441;51.420;7.036;2023-11-19T04:51:51;28.77;;;4.47;;
18623;SDS011;9441;51.420;7.036;2023-11-19T04:52:52;37.60;;;4.43;;
18623;SDS011;9441;51.420;7.036;2023-11-19T04:53:56;36.10;;;4.20;;
18623;SDS011;9441;51.420;7.036;2023-11-19T04:54:57;30.90;;;4.13;;
18623;SDS011;9441;51.420;7.036;2023-11-19T04:55:59;31.77;;;4.60;;
18623;SDS011;9441;51.420;7.036;2023-11-19T04:57:00;29.70;;;4.33;;
18623;SDS011;9441;51.420;7.036;2023-11-19T04:58:03;19.70;;;3.97;;
18623;SDS011;9441;51.420;7.036;2023-11-19T04:59:04;30.50;;;4.73;;
18623;SDS011;9441;51.420;7.036;2023-11-19T05:00:07;28.37;;;4.80;;
18623;SDS011;9441;51.420;7.036;2023-11-19T05:01:12;37.90;;;4.83;;
18623;SDS011;9441;51.420;7.036;2023-11-19T05:02:14;22.93;;;3.90;;
18623;SDS011;9441;51.420;7.036;2023-11-19T05:03:17;38.63;;;4.70;;
18623;SDS011;9441;51.420;7.036;2023-11-19T05:04:19;21.27;;;4.10;;
18623;SDS011;9441;51.420;7.036;2023-11-19T05:05:22;35.20;;;4.43;;
18623;SDS011;9441;51.420;7.036;2023-11-19T05:06:23;32.63;;;4.57;;
18623;SDS011;9441;51.420;7.036;2023-11-19T05:07:26;29.57;;;4.00;;
18623;SDS011;9441;51.420;7.036;2023-11-19T05:08:28;32.23;;;4.00;;
18623;SDS011;9441;51.420;7.036;2023-11-19T05:09:30;33.10;;;4.67;;
18623;SDS011;9441;51.420;7.036;2023-11-19T05:10:32;32.43;;;3.83;;
18623;SDS011;9441;51.420;7.036;2023-11-19T05:11:34;30.27;;;3.83;;
18623;SDS011;9441;51.420;7.036;2023-11-19T05:12:35;31.53;;;4.17;;
18623;SDS011;9441;51.420;7.036;2023-11-19T05:13:39;26.70;;;4.13;;
18623;SDS011;9441;51.420;7.036;2023-11-19T05:14:40;31.23;;;4.20;;
18623;SDS011;9441;51.420;7.036;2023-11-19T05:15:48;30.20;;;3.90;;
18623;SDS011;9441;51.420;7.036;2023-11-19T05:16:50;29.87;;;4.13;;
18623;SDS011;9441;51.420;7.036;2023-11-19T05:17:52;35.40;;;4.30;;
18623;SDS011;9441;51.420;7.036;2023-11-19T05:18:54;34.93;;;4.30;;
18623;SDS011;9441;51.420;7.036;2023-11-19T05:19:56;25.47;;;3.57;;
18623;SDS011;9441;51.420;7.036;2023-11-19T05:20:58;41.60;;;5.00;;
18623;SDS011;9441;51.420;7.036;2023-11-19T05:22:00;42.37;;;4.50;;
18623;SDS011;9441;51.420;7.036;2023-11-19T05:23:02;37.73;;;4.63;;
18623;SDS011;9441;51.420;7.036;2023-11-19T05:24:04;29.30;;;4.20;;
18623;SDS011;9441;51.420;7.036;2023-11-19T05:25:06;23.27;;;4.40;;
18623;SDS011;9441;51.420;7.036;2023-11-19T05:26:09;33.37;;;4.13;;
18623;SDS011;9441;51.420;7.036;2023-11-19T05:27:11;29.97;;;4.20;;
18623;SDS011;9441;51.420;7.036;2023-11-19T05:28:13;36.97;;;4.63;;
18623;SDS011;9441;51.420;7.036;2023-11-19T05:29:16;36.87;;;4.80;;
18623;SDS011;9441;51.420;7.036;2023-11-19T05:30:17;35.90;;;5.00;;
18623;SDS011;9441;51.420;7.036;2023-11-19T05:31:19;26.90;;;3.73;;
18623;SDS011;9441;51.420;7.036;2023-11-19T05:32:21;34.57;;;4.40;;
18623;SDS011;9441;51.420;7.036;2023-11-19T05:33:23;31.33;;;4.20;;
18623;SDS011;9441;51.420;7.036;2023-11-19T05:34:24;31.10;;;4.07;;
18623;SDS011;9441;51.420;7.036;2023-11-19T05:35:27;30.97;;;4.03;;
18623;SDS011;9441;51.420;7.036;2023-11-19T05:36:30;29.07;;;4.40;;
18623;SDS011;9441;51.420;7.036;2023-11-19T05:37:31;26.70;;;4.10;;
18623;SDS011;9441;51.420;7.036;2023-11-19T05:38:35;32.17;;;4.03;;
18623;SDS011;9441;51.420;7.036;2023-11-19T05:39:36;36.23;;;4.17;;
18623;SDS011;9441;51.420;7.036;2023-11-19T05:40:39;20.27;;;3.70;;
18623;SDS011;9441;51.420;7.036;2023-11-19T05:41:40;29.83;;;3.90;;
18623;SDS011;9441;51.420;7.036;2023-11-19T05:42:42;28.67;;;3.60;;
18623;SDS011;9441;51.420;7.036;2023-11-19T05:43:44;32.97;;;3.90;;
18623;SDS011;9441;51.420;7.036;2023-11-19T05:44:46;23.00;;;4.37;;
18623;SDS011;9441;51.420;7.036;2023-11-19T05:45:47;29.40;;;4.40;;
18623;SDS011;9441;51.420;7.036;2023-11-19T05:46:50;31.73;;;4.50;;
18623;SDS011;9441;51.420;7.036;2023-11-19T05:47:51;31.97;;;4.30;;
18623;SDS011;9441;51.420;7.036;2023-11-19T05:48:53;27.57;;;3.33;;
18623;SDS011;9441;51.420;7.036;2023-11-19T05:49:55;21.40;;;3.83;;
18623;SDS011;9441;51.420;7.036;2023-11-19T05:50:58;34.30;;;4.60;;
18623;SDS011;9441;51.420;7.036;2023-11-19T05:52:00;30.47;;;4.17;;
18623;SDS011;9441;51.420;7.036;2023-11-19T05:53:03;30.63;;;4.07;;
18623;SDS011;9441;51.420;7.036;2023-11-19T05:54:06;27.93;;;3.80;;
18623;SDS011;9441;51.420;7.036;2023-11-19T05:55:07;36.40;;;4.93;;
18623;SDS011;9441;51.420;7.036;2023-11-19T05:56:10;24.67;;;4.03;;
18623;SDS011;9441;51.420;7.036;2023-11-19T05:57:14;32.70;;;4.30;;
18623;SDS011;9441;51.420;7.036;2023-11-19T05:58:20;34.50;;;4.27;;
18623;SDS011;9441;51.420;7.036;2023-11-19T05:59:23;30.70;;;4.67;;
18623;SDS011;9441;51.420;7.036;2023-11-19T06:00:26;29.10;;;4.00;;
18623;SDS011;9441;51.420;7.036;2023-11-19T06:01:27;26.33;;;3.70;;
18623;SDS011;9441;51.420;7.036;2023-11-19T06:02:30;33.47;;;4.80;;
18623;SDS011;9441;51.420;7.036;2023-11-19T06:03:31;32.03;;;4.03;;
18623;SDS011;9441;51.420;7.036;2023-11-19T06:04:34;29.93;;;3.93;;
18623;SDS011;9441;51.420;7.036;2023-11-19T06:05:35;32.57;;;4.87;;
18623;SDS011;9441;51.420;7.036;2023-11-19T06:06:39;29.97;;;4.03;;
18623;SDS011;9441;51.420;7.036;2023-11-19T06:07:41;31.90;;;4.03;;
18623;SDS011;9441;51.420;7.036;2023-11-19T06:08:43;30.73;;;3.90;;
18623;SDS011;9441;51.420;7.036;2023-11-19T06:09:44;31.73;;;3.70;;
18623;SDS011;9441;51.420;7.036;2023-11-19T06:10:46;34.13;;;4.47;;
18623;SDS011;9441;51.420;7.036;2023-11-19T06:11:50;35.77;;;4.33;;
18623;SDS011;9441;51.420;7.036;2023-11-19T06:12:53;37.20;;;4.20;;
18623;SDS011;9441;51.420;7.036;2023-11-19T06:13:56;28.57;;;4.43;;
18623;SDS011;9441;51.420;7.036;2023-11-19T06:14:58;35.37;;;3.97;;
18623;SDS011;9441;51.420;7.036;2023-11-19T06:16:00;32.40;;;3.97;;
18623;SDS011;9441;51.420;7.036;2023-11-19T06:17:03;30.03;;;4.00;;
18623;SDS011;9441;51.420;7.036;2023-11-19T06:18:05;27.87;;;4.00;;